sensor_id;sensor_type;location;lat;lon;timestamp;temperature;humidity
2459;DHT22;1241;50.920;6.936;2022-07-10T00:00:38;15.30;99.90
2459;DHT22;1241;50.920;6.936;2022-07-10T00:03:05;15.30;99.90
2459;DHT22;1241;50.920;6.936;2022-07-10T00:05:31;15.20;99.90
2459;DHT22;1241;50.920;6.936;2022-07-10T00:07:57;15.20;99.90
2459;DHT22;1241;50.920;6.936;2022-07-10T00:10:23;15.20;99.90
2459;DHT22;1241;50.920;6.936;2022-07-10T00:12:51;15.20;99.90
2459;DHT22;1241;50.920;6.936;2022-07-10T00:15:17;15.10;99.90
2459;DHT22;1241;50.920;6.936;2022-07-10T00:17:44;15.40;99.90
2459;DHT22;1241;50.920;6.936;2022-07-10T00:20:10;15.10;99.90
2459;DHT22;1241;50.920;6.936;2022-07-10T00:22:37;15.10;99.90
2459;DHT22;1241;50.920;6.936;2022-07-10T00:25:07;15.00;99.90
2459;DHT22;1241;50.920;6.936;2022-07-10T00:27:33;14.90;99.90
2459;DHT22;1241;50.920;6.936;2022-07-10T00:29:59;14.90;99.90
2459;DHT22;1241;50.920;6.936;2022-07-10T00:32:25;14.80;99.90
2459;DHT22;1241;50.920;6.936;2022-07-10T00:34:51;14.80;99.90
2459;DHT22;1241;50.920;6.936;2022-07-10T00:37:17;14.80;99.90
2459;DHT22;1241;50.920;6.936;2022-07-10T00:39:43;14.80;99.90
2459;DHT22;1241;50.920;6.936;2022-07-10T00:42:13;14.70;99.90
2459;DHT22;1241;50.920;6.936;2022-07-10T00:44:41;14.70;99.90
2459;DHT22;1241;50.920;6.936;2022-07-10T00:47:08;14.70;99.90
2459;DHT22;1241;50.920;6.936;2022-07-10T00:49:35;14.60;99.90
2459;DHT22;1241;50.920;6.936;2022-07-10T00:52:04;14.60;99.90
2459;DHT22;1241;50.920;6.936;2022-07-10T00:54:32;14.60;99.90
2459;DHT22;1241;50.920;6.936;2022-07-10T00:56:59;14.60;99.90
2459;DHT22;1241;50.920;6.936;2022-07-10T00:59:26;14.50;99.90
2459;DHT22;1241;50.920;6.936;2022-07-10T01:01:52;14.50;99.90
2459;DHT22;1241;50.920;6.936;2022-07-10T01:04:18;14.50;99.90
2459;DHT22;1241;50.920;6.936;2022-07-10T01:06:44;14.50;99.90
2459;DHT22;1241;50.920;6.936;2022-07-10T01:09:11;14.50;99.90
2459;DHT22;1241;50.920;6.936;2022-07-10T01:11:37;14.40;99.90
2459;DHT22;1241;50.920;6.936;2022-07-10T01:14:03;14.40;99.90
2459;DHT22;1241;50.920;6.936;2022-07-10T01:16:32;14.40;99.90
2459;DHT22;1241;50.920;6.936;2022-07-10T01:18:58;14.30;99.90
2459;DHT22;1241;50.920;6.936;2022-07-10T01:21:35;14.30;99.90
2459;DHT22;1241;50.920;6.936;2022-07-10T01:24:07;14.30;99.90
2459;DHT22;1241;50.920;6.936;2022-07-10T01:26:34;14.30;99.90
2459;DHT22;1241;50.920;6.936;2022-07-10T01:29:04;14.20;99.90
2459;DHT22;1241;50.920;6.936;2022-07-10T01:31:30;14.20;99.90
2459;DHT22;1241;50.920;6.936;2022-07-10T01:33:57;14.10;99.90
2459;DHT22;1241;50.920;6.936;2022-07-10T01:36:23;14.10;99.90
2459;DHT22;1241;50.920;6.936;2022-07-10T01:38:52;14.10;99.90
2459;DHT22;1241;50.920;6.936;2022-07-10T01:41:18;14.10;99.90
2459;DHT22;1241;50.920;6.936;2022-07-10T01:43:44;14.00;99.90
2459;DHT22;1241;50.920;6.936;2022-07-10T01:46:11;14.00;99.90
2459;DHT22;1241;50.920;6.936;2022-07-10T01:48:38;14.00;99.90
2459;DHT22;1241;50.920;6.936;2022-07-10T01:51:04;14.00;99.90
2459;DHT22;1241;50.920;6.936;2022-07-10T01:53:30;14.00;99.90
2459;DHT22;1241;50.920;6.936;2022-07-10T01:55:56;14.10;99.90
2459;DHT22;1241;50.920;6.936;2022-07-10T01:58:22;14.10;99.90
2459;DHT22;1241;50.920;6.936;2022-07-10T02:00:48;14.10;99.90
2459;DHT22;1241;50.920;6.936;2022-07-10T02:03:14;14.20;99.90
2459;DHT22;1241;50.920;6.936;2022-07-10T02:05:58;14.20;99.90
2459;DHT22;1241;50.920;6.936;2022-07-10T02:08:24;14.40;99.90
2459;DHT22;1241;50.920;6.936;2022-07-10T02:10:49;14.50;99.90
2459;DHT22;1241;50.920;6.936;2022-07-10T02:13:16;14.60;99.90
2459;DHT22;1241;50.920;6.936;2022-07-10T02:15:46;14.60;99.90
2459;DHT22;1241;50.920;6.936;2022-07-10T02:18:12;14.70;99.90
2459;DHT22;1241;50.920;6.936;2022-07-10T02:20:37;14.80;99.90
2459;DHT22;1241;50.920;6.936;2022-07-10T02:23:03;14.80;99.90
2459;DHT22;1241;50.920;6.936;2022-07-10T02:25:29;14.90;99.90
2459;DHT22;1241;50.920;6.936;2022-07-10T02:27:54;14.90;99.90
2459;DHT22;1241;50.920;6.936;2022-07-10T02:30:20;15.00;99.90
2459;DHT22;1241;50.920;6.936;2022-07-10T02:32:46;14.90;99.90
2459;DHT22;1241;50.920;6.936;2022-07-10T02:35:12;14.90;99.90
2459;DHT22;1241;50.920;6.936;2022-07-10T02:37:37;14.80;99.90
2459;DHT22;1241;50.920;6.936;2022-07-10T02:40:03;14.80;99.90
2459;DHT22;1241;50.920;6.936;2022-07-10T02:42:29;14.70;99.90
2459;DHT22;1241;50.920;6.936;2022-07-10T02:44:55;14.80;99.90
2459;DHT22;1241;50.920;6.936;2022-07-10T02:47:21;14.80;99.90
2459;DHT22;1241;50.920;6.936;2022-07-10T02:49:47;14.80;99.90
2459;DHT22;1241;50.920;6.936;2022-07-10T02:52:12;14.80;99.90
2459;DHT22;1241;50.920;6.936;2022-07-10T02:54:38;14.80;99.90
2459;DHT22;1241;50.920;6.936;2022-07-10T02:57:04;14.80;99.90
2459;DHT22;1241;50.920;6.936;2022-07-10T02:59:30;14.70;99.90
2459;DHT22;1241;50.920;6.936;2022-07-10T03:01:56;14.60;99.90
2459;DHT22;1241;50.920;6.936;2022-07-10T03:04:22;14.40;99.90
2459;DHT22;1241;50.920;6.936;2022-07-10T03:06:47;14.40;99.90
2459;DHT22;1241;50.920;6.936;2022-07-10T03:09:13;14.40;99.90
2459;DHT22;1241;50.920;6.936;2022-07-10T03:11:39;14.30;99.90
2459;DHT22;1241;50.920;6.936;2022-07-10T03:14:04;14.30;99.90
2459;DHT22;1241;50.920;6.936;2022-07-10T03:16:31;14.30;99.90
2459;DHT22;1241;50.920;6.936;2022-07-10T03:18:57;14.40;99.90
2459;DHT22;1241;50.920;6.936;2022-07-10T03:21:23;14.50;99.90
2459;DHT22;1241;50.920;6.936;2022-07-10T03:23:49;14.50;99.90
2459;DHT22;1241;50.920;6.936;2022-07-10T03:26:16;14.50;99.90
2459;DHT22;1241;50.920;6.936;2022-07-10T03:28:41;14.50;99.90
2459;DHT22;1241;50.920;6.936;2022-07-10T03:31:07;14.50;99.90
2459;DHT22;1241;50.920;6.936;2022-07-10T03:33:33;14.60;99.90
2459;DHT22;1241;50.920;6.936;2022-07-10T03:35:59;14.60;99.90
2459;DHT22;1241;50.920;6.936;2022-07-10T03:38:27;14.60;99.90
2459;DHT22;1241;50.920;6.936;2022-07-10T03:40:53;14.60;99.90
2459;DHT22;1241;50.920;6.936;2022-07-10T03:43:19;14.60;99.90
2459;DHT22;1241;50.920;6.936;2022-07-10T03:45:44;14.60;99.90
2459;DHT22;1241;50.920;6.936;2022-07-10T03:48:10;14.60;99.90
2459;DHT22;1241;50.920;6.936;2022-07-10T03:50:36;14.70;99.90
2459;DHT22;1241;50.920;6.936;2022-07-10T03:53:01;14.70;99.90
2459;DHT22;1241;50.920;6.936;2022-07-10T03:55:27;14.70;99.90
2459;DHT22;1241;50.920;6.936;2022-07-10T03:57:53;14.80;99.90
2459;DHT22;1241;50.920;6.936;2022-07-10T04:00:29;14.90;99.90
2459;DHT22;1241;50.920;6.936;2022-07-10T04:03:02;14.90;99.90
2459;DHT22;1241;50.920;6.936;2022-07-10T04:05:28;14.90;99.90
2459;DHT22;1241;50.920;6.936;2022-07-10T04:07:55;15.00;99.90
2459;DHT22;1241;50.920;6.936;2022-07-10T04:10:26;15.00;99.90
2459;DHT22;1241;50.920;6.936;2022-07-10T04:12:52;15.20;99.90
2459;DHT22;1241;50.920;6.936;2022-07-10T04:15:18;15.20;99.90
2459;DHT22;1241;50.920;6.936;2022-07-10T04:17:44;15.30;99.90
2459;DHT22;1241;50.920;6.936;2022-07-10T04:20:10;15.70;99.90
2459;DHT22;1241;50.920;6.936;2022-07-10T04:22:36;16.20;99.90
2459;DHT22;1241;50.920;6.936;2022-07-10T04:25:03;16.90;99.90
2459;DHT22;1241;50.920;6.936;2022-07-10T04:27:29;17.50;99.90
2459;DHT22;1241;50.920;6.936;2022-07-10T04:29:55;18.10;99.90
2459;DHT22;1241;50.920;6.936;2022-07-10T04:32:21;18.60;99.90
2459;DHT22;1241;50.920;6.936;2022-07-10T04:34:46;19.10;99.90
2459;DHT22;1241;50.920;6.936;2022-07-10T04:37:12;19.70;99.90
2459;DHT22;1241;50.920;6.936;2022-07-10T04:39:38;20.40;99.90
2459;DHT22;1241;50.920;6.936;2022-07-10T04:42:05;20.90;99.90
2459;DHT22;1241;50.920;6.936;2022-07-10T04:44:31;21.30;99.90
2459;DHT22;1241;50.920;6.936;2022-07-10T04:46:57;21.70;99.90
2459;DHT22;1241;50.920;6.936;2022-07-10T04:49:24;21.90;99.90
2459;DHT22;1241;50.920;6.936;2022-07-10T04:51:50;22.30;99.90
2459;DHT22;1241;50.920;6.936;2022-07-10T04:54:16;22.60;99.90
2459;DHT22;1241;50.920;6.936;2022-07-10T04:56:41;22.60;99.90
2459;DHT22;1241;50.920;6.936;2022-07-10T04:59:07;22.20;99.90
2459;DHT22;1241;50.920;6.936;2022-07-10T05:01:33;21.50;99.90
2459;DHT22;1241;50.920;6.936;2022-07-10T05:03:59;20.70;99.90
2459;DHT22;1241;50.920;6.936;2022-07-10T05:06:24;20.10;99.90
2459;DHT22;1241;50.920;6.936;2022-07-10T05:08:50;19.80;99.90
2459;DHT22;1241;50.920;6.936;2022-07-10T05:11:16;19.50;99.90
2459;DHT22;1241;50.920;6.936;2022-07-10T05:13:42;19.40;99.90
2459;DHT22;1241;50.920;6.936;2022-07-10T05:16:12;19.50;99.90
2459;DHT22;1241;50.920;6.936;2022-07-10T05:18:39;19.60;99.90
2459;DHT22;1241;50.920;6.936;2022-07-10T05:21:05;19.90;99.90
2459;DHT22;1241;50.920;6.936;2022-07-10T05:23:31;20.00;99.90
2459;DHT22;1241;50.920;6.936;2022-07-10T05:25:57;20.10;99.90
2459;DHT22;1241;50.920;6.936;2022-07-10T05:28:22;20.30;99.90
2459;DHT22;1241;50.920;6.936;2022-07-10T05:30:48;20.60;99.90
2459;DHT22;1241;50.920;6.936;2022-07-10T05:33:17;21.00;99.90
2459;DHT22;1241;50.920;6.936;2022-07-10T05:35:43;21.40;99.90
2459;DHT22;1241;50.920;6.936;2022-07-10T05:38:08;22.00;99.90
2459;DHT22;1241;50.920;6.936;2022-07-10T05:40:34;22.20;99.90
2459;DHT22;1241;50.920;6.936;2022-07-10T05:43:00;22.40;99.90
2459;DHT22;1241;50.920;6.936;2022-07-10T05:45:26;22.20;99.90
2459;DHT22;1241;50.920;6.936;2022-07-10T05:47:52;22.00;99.90
2459;DHT22;1241;50.920;6.936;2022-07-10T05:50:18;22.30;99.90
2459;DHT22;1241;50.920;6.936;2022-07-10T05:52:43;22.80;99.90
2459;DHT22;1241;50.920;6.936;2022-07-10T05:55:09;23.50;99.90
2459;DHT22;1241;50.920;6.936;2022-07-10T05:57:35;23.60;99.90
2459;DHT22;1241;50.920;6.936;2022-07-10T06:00:03;23.70;99.90
2459;DHT22;1241;50.920;6.936;2022-07-10T06:02:37;23.40;99.90
2459;DHT22;1241;50.920;6.936;2022-07-10T06:05:03;23.40;99.90
2459;DHT22;1241;50.920;6.936;2022-07-10T06:07:29;23.30;99.90
2459;DHT22;1241;50.920;6.936;2022-07-10T06:09:55;23.10;99.90
2459;DHT22;1241;50.920;6.936;2022-07-10T06:12:21;23.30;99.90
2459;DHT22;1241;50.920;6.936;2022-07-10T06:14:46;23.00;99.90
2459;DHT22;1241;50.920;6.936;2022-07-10T06:17:12;22.70;99.90
2459;DHT22;1241;50.920;6.936;2022-07-10T06:19:38;22.90;99.90
2459;DHT22;1241;50.920;6.936;2022-07-10T06:22:04;22.70;99.90
2459;DHT22;1241;50.920;6.936;2022-07-10T06:24:48;22.00;99.90
2459;DHT22;1241;50.920;6.936;2022-07-10T06:27:13;21.40;99.90
2459;DHT22;1241;50.920;6.936;2022-07-10T06:29:39;20.70;99.90
2459;DHT22;1241;50.920;6.936;2022-07-10T06:32:05;20.30;99.90
2459;DHT22;1241;50.920;6.936;2022-07-10T06:34:31;20.20;99.90
2459;DHT22;1241;50.920;6.936;2022-07-10T06:36:57;20.10;99.90
2459;DHT22;1241;50.920;6.936;2022-07-10T06:39:23;19.90;99.90
2459;DHT22;1241;50.920;6.936;2022-07-10T06:41:48;19.80;99.90
2459;DHT22;1241;50.920;6.936;2022-07-10T06:44:14;20.00;99.90
2459;DHT22;1241;50.920;6.936;2022-07-10T06:46:40;20.00;99.90
2459;DHT22;1241;50.920;6.936;2022-07-10T06:49:06;20.20;99.90
2459;DHT22;1241;50.920;6.936;2022-07-10T06:51:32;21.10;99.90
2459;DHT22;1241;50.920;6.936;2022-07-10T06:53:58;22.00;99.90
2459;DHT22;1241;50.920;6.936;2022-07-10T06:56:24;22.30;99.90
2459;DHT22;1241;50.920;6.936;2022-07-10T06:58:49;22.10;99.90
2459;DHT22;1241;50.920;6.936;2022-07-10T07:01:15;21.40;99.90
2459;DHT22;1241;50.920;6.936;2022-07-10T07:03:41;21.10;99.90
2459;DHT22;1241;50.920;6.936;2022-07-10T07:06:07;20.50;99.90
2459;DHT22;1241;50.920;6.936;2022-07-10T07:08:32;20.00;99.90
2459;DHT22;1241;50.920;6.936;2022-07-10T07:11:00;19.50;99.90
2459;DHT22;1241;50.920;6.936;2022-07-10T07:13:26;19.20;99.90
2459;DHT22;1241;50.920;6.936;2022-07-10T07:15:52;19.00;99.90
2459;DHT22;1241;50.920;6.936;2022-07-10T07:18:30;18.80;99.90
2459;DHT22;1241;50.920;6.936;2022-07-10T07:21:01;18.70;99.90
2459;DHT22;1241;50.920;6.936;2022-07-10T07:23:45;18.60;99.90
2459;DHT22;1241;50.920;6.936;2022-07-10T07:26:10;18.60;99.90
2459;DHT22;1241;50.920;6.936;2022-07-10T07:28:36;18.80;99.90
2459;DHT22;1241;50.920;6.936;2022-07-10T07:31:02;18.90;99.90
2459;DHT22;1241;50.920;6.936;2022-07-10T07:33:27;19.00;99.90
2459;DHT22;1241;50.920;6.936;2022-07-10T07:35:53;19.00;99.90
2459;DHT22;1241;50.920;6.936;2022-07-10T07:38:19;18.90;99.90
2459;DHT22;1241;50.920;6.936;2022-07-10T07:40:45;18.80;99.90
2459;DHT22;1241;50.920;6.936;2022-07-10T07:43:11;18.60;99.90
2459;DHT22;1241;50.920;6.936;2022-07-10T07:45:37;18.50;99.90
2459;DHT22;1241;50.920;6.936;2022-07-10T07:48:03;18.50;99.90
2459;DHT22;1241;50.920;6.936;2022-07-10T07:50:31;18.50;99.90
2459;DHT22;1241;50.920;6.936;2022-07-10T07:53:02;18.50;99.90
2459;DHT22;1241;50.920;6.936;2022-07-10T07:55:28;18.50;99.90
2459;DHT22;1241;50.920;6.936;2022-07-10T07:57:55;18.60;99.90
2459;DHT22;1241;50.920;6.936;2022-07-10T08:00:23;18.70;99.90
2459;DHT22;1241;50.920;6.936;2022-07-10T08:02:50;18.90;99.90
2459;DHT22;1241;50.920;6.936;2022-07-10T08:05:16;18.80;99.90
2459;DHT22;1241;50.920;6.936;2022-07-10T08:07:48;19.00;99.90
2459;DHT22;1241;50.920;6.936;2022-07-10T08:10:19;19.30;99.90
2459;DHT22;1241;50.920;6.936;2022-07-10T08:12:46;19.80;99.90
2459;DHT22;1241;50.920;6.936;2022-07-10T08:15:14;19.90;99.90
2459;DHT22;1241;50.920;6.936;2022-07-10T08:17:40;19.60;99.90
2459;DHT22;1241;50.920;6.936;2022-07-10T08:20:07;19.40;99.90
2459;DHT22;1241;50.920;6.936;2022-07-10T08:22:33;19.50;99.90
2459;DHT22;1241;50.920;6.936;2022-07-10T08:24:59;19.60;99.90
2459;DHT22;1241;50.920;6.936;2022-07-10T08:27:25;19.70;99.90
2459;DHT22;1241;50.920;6.936;2022-07-10T08:29:51;19.60;99.90
2459;DHT22;1241;50.920;6.936;2022-07-10T08:32:17;19.60;99.90
2459;DHT22;1241;50.920;6.936;2022-07-10T08:34:43;19.50;99.90
2459;DHT22;1241;50.920;6.936;2022-07-10T08:37:09;19.60;99.90
2459;DHT22;1241;50.920;6.936;2022-07-10T08:39:34;19.70;99.90
2459;DHT22;1241;50.920;6.936;2022-07-10T08:42:00;20.00;99.90
2459;DHT22;1241;50.920;6.936;2022-07-10T08:44:28;20.50;99.90
2459;DHT22;1241;50.920;6.936;2022-07-10T08:46:54;20.70;99.90
2459;DHT22;1241;50.920;6.936;2022-07-10T08:49:24;20.90;99.90
2459;DHT22;1241;50.920;6.936;2022-07-10T08:51:58;20.90;99.90
2459;DHT22;1241;50.920;6.936;2022-07-10T08:54:28;20.90;99.90
2459;DHT22;1241;50.920;6.936;2022-07-10T08:56:59;20.60;99.90
2459;DHT22;1241;50.920;6.936;2022-07-10T08:59:26;20.40;99.90
2459;DHT22;1241;50.920;6.936;2022-07-10T09:01:52;20.20;99.90
2459;DHT22;1241;50.920;6.936;2022-07-10T09:04:20;19.80;99.90
2459;DHT22;1241;50.920;6.936;2022-07-10T09:06:46;19.60;99.90
2459;DHT22;1241;50.920;6.936;2022-07-10T09:09:12;19.60;99.90
2459;DHT22;1241;50.920;6.936;2022-07-10T09:11:39;19.70;99.90
2459;DHT22;1241;50.920;6.936;2022-07-10T09:14:09;20.00;99.90
2459;DHT22;1241;50.920;6.936;2022-07-10T09:16:38;20.40;99.90
2459;DHT22;1241;50.920;6.936;2022-07-10T09:19:25;20.90;99.90
2459;DHT22;1241;50.920;6.936;2022-07-10T09:21:55;21.40;99.90
2459;DHT22;1241;50.920;6.936;2022-07-10T09:24:25;21.90;99.90
2459;DHT22;1241;50.920;6.936;2022-07-10T09:29:19;21.20;99.90
2459;DHT22;1241;50.920;6.936;2022-07-10T09:32:02;20.80;99.90
2459;DHT22;1241;50.920;6.936;2022-07-10T09:34:45;20.70;99.90
2459;DHT22;1241;50.920;6.936;2022-07-10T09:50:23;20.90;99.90
2459;DHT22;1241;50.920;6.936;2022-07-10T09:52:54;21.10;99.90
2459;DHT22;1241;50.920;6.936;2022-07-10T09:55:22;21.60;99.90
2459;DHT22;1241;50.920;6.936;2022-07-10T09:57:56;22.10;99.90
2459;DHT22;1241;50.920;6.936;2022-07-10T10:00:27;22.10;99.90
2459;DHT22;1241;50.920;6.936;2022-07-10T10:03:16;22.20;99.90
2459;DHT22;1241;50.920;6.936;2022-07-10T10:06:03;21.90;99.90
2459;DHT22;1241;50.920;6.936;2022-07-10T10:08:34;21.50;99.90
2459;DHT22;1241;50.920;6.936;2022-07-10T10:11:03;21.20;99.90
2459;DHT22;1241;50.920;6.936;2022-07-10T10:13:29;20.80;99.90
2459;DHT22;1241;50.920;6.936;2022-07-10T10:15:58;20.30;99.90
2459;DHT22;1241;50.920;6.936;2022-07-10T10:18:26;20.20;99.90
2459;DHT22;1241;50.920;6.936;2022-07-10T10:20:54;20.20;99.90
2459;DHT22;1241;50.920;6.936;2022-07-10T10:23:22;20.20;99.90
2459;DHT22;1241;50.920;6.936;2022-07-10T10:25:52;20.10;99.90
2459;DHT22;1241;50.920;6.936;2022-07-10T10:28:21;20.00;99.90
2459;DHT22;1241;50.920;6.936;2022-07-10T10:33:42;19.80;99.90
2459;DHT22;1241;50.920;6.936;2022-07-10T10:36:08;19.60;99.90
2459;DHT22;1241;50.920;6.936;2022-07-10T10:49:17;20.60;99.90
2459;DHT22;1241;50.920;6.936;2022-07-10T10:52:11;21.10;99.90
2459;DHT22;1241;50.920;6.936;2022-07-10T10:57:23;21.50;99.90
2459;DHT22;1241;50.920;6.936;2022-07-10T10:59:53;21.30;99.90
2459;DHT22;1241;50.920;6.936;2022-07-10T11:02:31;21.20;99.90
2459;DHT22;1241;50.920;6.936;2022-07-10T11:07:55;21.30;99.90
2459;DHT22;1241;50.920;6.936;2022-07-10T11:10:32;21.50;99.90
2459;DHT22;1241;50.920;6.936;2022-07-10T11:13:18;21.60;99.90
2459;DHT22;1241;50.920;6.936;2022-07-10T11:15:48;21.60;99.90
2459;DHT22;1241;50.920;6.936;2022-07-10T11:18:20;21.70;99.90
2459;DHT22;1241;50.920;6.936;2022-07-10T11:20:54;21.80;99.90
2459;DHT22;1241;50.920;6.936;2022-07-10T11:26:08;21.10;99.90
2459;DHT22;1241;50.920;6.936;2022-07-10T11:31:06;20.90;99.90
2459;DHT22;1241;50.920;6.936;2022-07-10T11:33:39;20.90;99.90
2459;DHT22;1241;50.920;6.936;2022-07-10T11:36:16;20.90;99.90
2459;DHT22;1241;50.920;6.936;2022-07-10T11:38:43;20.90;99.90
2459;DHT22;1241;50.920;6.936;2022-07-10T11:41:19;20.80;99.90
2459;DHT22;1241;50.920;6.936;2022-07-10T11:43:48;20.50;99.90
2459;DHT22;1241;50.920;6.936;2022-07-10T11:46:14;20.20;99.90
2459;DHT22;1241;50.920;6.936;2022-07-10T11:48:40;19.90;99.90
2459;DHT22;1241;50.920;6.936;2022-07-10T11:53:55;19.60;99.90
2459;DHT22;1241;50.920;6.936;2022-07-10T11:56:21;19.70;99.90
2459;DHT22;1241;50.920;6.936;2022-07-10T11:59:08;19.80;99.90
2459;DHT22;1241;50.920;6.936;2022-07-10T12:04:08;19.90;99.90
2459;DHT22;1241;50.920;6.936;2022-07-10T12:06:37;19.70;99.90
2459;DHT22;1241;50.920;6.936;2022-07-10T12:09:07;19.60;99.90
2459;DHT22;1241;50.920;6.936;2022-07-10T12:11:34;19.60;99.90
2459;DHT22;1241;50.920;6.936;2022-07-10T12:14:11;19.50;99.90
2459;DHT22;1241;50.920;6.936;2022-07-10T12:16:38;19.40;99.90
2459;DHT22;1241;50.920;6.936;2022-07-10T12:19:06;19.60;99.90
2459;DHT22;1241;50.920;6.936;2022-07-10T12:21:32;19.70;99.90
2459;DHT22;1241;50.920;6.936;2022-07-10T12:23:58;19.70;99.90
2459;DHT22;1241;50.920;6.936;2022-07-10T12:26:32;19.80;99.90
2459;DHT22;1241;50.920;6.936;2022-07-10T12:28:58;19.90;99.90
2459;DHT22;1241;50.920;6.936;2022-07-10T12:31:26;19.90;99.90
2459;DHT22;1241;50.920;6.936;2022-07-10T12:34:00;19.90;99.90
2459;DHT22;1241;50.920;6.936;2022-07-10T12:36:50;19.70;99.90
2459;DHT22;1241;50.920;6.936;2022-07-10T12:39:21;19.50;99.90
2459;DHT22;1241;50.920;6.936;2022-07-10T12:42:13;19.20;99.90
2459;DHT22;1241;50.920;6.936;2022-07-10T12:44:49;19.00;99.90
2459;DHT22;1241;50.920;6.936;2022-07-10T12:47:19;18.80;99.90
2459;DHT22;1241;50.920;6.936;2022-07-10T12:49:52;18.90;99.90
2459;DHT22;1241;50.920;6.936;2022-07-10T13:00:15;19.80;99.90
2459;DHT22;1241;50.920;6.936;2022-07-10T13:02:41;20.10;99.90
2459;DHT22;1241;50.920;6.936;2022-07-10T13:05:07;20.50;99.90
2459;DHT22;1241;50.920;6.936;2022-07-10T13:07:35;20.60;99.90
2459;DHT22;1241;50.920;6.936;2022-07-10T13:10:03;20.60;99.90
2459;DHT22;1241;50.920;6.936;2022-07-10T13:12:29;20.80;99.90
2459;DHT22;1241;50.920;6.936;2022-07-10T13:14:55;21.00;99.90
2459;DHT22;1241;50.920;6.936;2022-07-10T13:17:20;21.10;99.90
2459;DHT22;1241;50.920;6.936;2022-07-10T13:19:46;21.10;99.90
2459;DHT22;1241;50.920;6.936;2022-07-10T13:22:12;20.90;99.90
2459;DHT22;1241;50.920;6.936;2022-07-10T13:24:37;20.70;99.90
2459;DHT22;1241;50.920;6.936;2022-07-10T13:27:04;20.80;99.90
2459;DHT22;1241;50.920;6.936;2022-07-10T13:29:29;20.90;99.90
2459;DHT22;1241;50.920;6.936;2022-07-10T13:31:55;21.00;99.90
2459;DHT22;1241;50.920;6.936;2022-07-10T13:34:21;21.10;99.90
2459;DHT22;1241;50.920;6.936;2022-07-10T13:36:46;21.30;99.90
2459;DHT22;1241;50.920;6.936;2022-07-10T13:39:12;21.60;99.90
2459;DHT22;1241;50.920;6.936;2022-07-10T13:41:38;21.90;99.90
2459;DHT22;1241;50.920;6.936;2022-07-10T13:44:04;22.00;99.90
2459;DHT22;1241;50.920;6.936;2022-07-10T13:46:30;22.10;99.90
2459;DHT22;1241;50.920;6.936;2022-07-10T13:48:55;21.90;99.90
2459;DHT22;1241;50.920;6.936;2022-07-10T13:51:22;21.70;99.90
2459;DHT22;1241;50.920;6.936;2022-07-10T13:53:47;21.50;99.90
2459;DHT22;1241;50.920;6.936;2022-07-10T13:56:13;21.40;99.90
2459;DHT22;1241;50.920;6.936;2022-07-10T13:58:39;21.30;99.90
2459;DHT22;1241;50.920;6.936;2022-07-10T14:01:05;21.20;99.90
2459;DHT22;1241;50.920;6.936;2022-07-10T14:03:32;21.20;99.90
2459;DHT22;1241;50.920;6.936;2022-07-10T14:05:58;21.40;99.90
2459;DHT22;1241;50.920;6.936;2022-07-10T14:08:24;21.80;99.90
2459;DHT22;1241;50.920;6.936;2022-07-10T14:10:50;22.20;99.90
2459;DHT22;1241;50.920;6.936;2022-07-10T14:13:16;22.70;99.90
2459;DHT22;1241;50.920;6.936;2022-07-10T14:15:42;23.00;99.90
2459;DHT22;1241;50.920;6.936;2022-07-10T14:18:10;23.10;99.90
2459;DHT22;1241;50.920;6.936;2022-07-10T14:20:36;23.30;99.90
2459;DHT22;1241;50.920;6.936;2022-07-10T14:23:21;23.50;99.90
2459;DHT22;1241;50.920;6.936;2022-07-10T14:25:47;23.80;99.90
2459;DHT22;1241;50.920;6.936;2022-07-10T14:28:12;24.00;99.90
2459;DHT22;1241;50.920;6.936;2022-07-10T14:30:42;24.20;99.90
2459;DHT22;1241;50.920;6.936;2022-07-10T14:33:09;24.10;99.90
2459;DHT22;1241;50.920;6.936;2022-07-10T14:35:34;23.80;99.90
2459;DHT22;1241;50.920;6.936;2022-07-10T14:38:00;23.40;99.90
2459;DHT22;1241;50.920;6.936;2022-07-10T14:40:26;23.20;99.90
2459;DHT22;1241;50.920;6.936;2022-07-10T14:42:52;22.90;99.90
2459;DHT22;1241;50.920;6.936;2022-07-10T14:45:22;22.90;99.90
2459;DHT22;1241;50.920;6.936;2022-07-10T14:47:49;23.00;99.90
2459;DHT22;1241;50.920;6.936;2022-07-10T14:50:15;22.90;99.90
2459;DHT22;1241;50.920;6.936;2022-07-10T14:52:42;22.80;99.90
2459;DHT22;1241;50.920;6.936;2022-07-10T14:55:08;22.70;99.90
2459;DHT22;1241;50.920;6.936;2022-07-10T14:57:34;22.60;99.90
2459;DHT22;1241;50.920;6.936;2022-07-10T15:00:00;22.40;99.90
2459;DHT22;1241;50.920;6.936;2022-07-10T15:02:25;22.20;99.90
2459;DHT22;1241;50.920;6.936;2022-07-10T15:04:51;22.00;99.90
2459;DHT22;1241;50.920;6.936;2022-07-10T15:07:17;21.90;99.90
2459;DHT22;1241;50.920;6.936;2022-07-10T15:09:44;21.90;99.90
2459;DHT22;1241;50.920;6.936;2022-07-10T15:12:10;21.90;99.90
2459;DHT22;1241;50.920;6.936;2022-07-10T15:14:36;21.80;99.90
2459;DHT22;1241;50.920;6.936;2022-07-10T15:17:02;21.80;99.90
2459;DHT22;1241;50.920;6.936;2022-07-10T15:19:27;21.80;99.90
2459;DHT22;1241;50.920;6.936;2022-07-10T15:21:53;21.70;99.90
2459;DHT22;1241;50.920;6.936;2022-07-10T15:24:19;21.70;99.90
2459;DHT22;1241;50.920;6.936;2022-07-10T15:26:45;21.60;99.90
2459;DHT22;1241;50.920;6.936;2022-07-10T15:29:11;21.40;99.90
2459;DHT22;1241;50.920;6.936;2022-07-10T15:31:36;21.30;99.90
2459;DHT22;1241;50.920;6.936;2022-07-10T15:34:11;21.30;99.90
2459;DHT22;1241;50.920;6.936;2022-07-10T15:36:41;21.20;99.90
2459;DHT22;1241;50.920;6.936;2022-07-10T15:39:07;21.10;99.90
2459;DHT22;1241;50.920;6.936;2022-07-10T15:41:34;21.10;99.90
2459;DHT22;1241;50.920;6.936;2022-07-10T15:44:00;21.10;99.90
2459;DHT22;1241;50.920;6.936;2022-07-10T15:46:26;21.00;99.90
2459;DHT22;1241;50.920;6.936;2022-07-10T15:48:52;21.00;99.90
2459;DHT22;1241;50.920;6.936;2022-07-10T15:51:18;21.00;99.90
2459;DHT22;1241;50.920;6.936;2022-07-10T15:53:43;20.90;99.90
2459;DHT22;1241;50.920;6.936;2022-07-10T15:56:09;21.00;99.90
2459;DHT22;1241;50.920;6.936;2022-07-10T15:58:35;21.00;99.90
2459;DHT22;1241;50.920;6.936;2022-07-10T16:01:01;20.90;99.90
2459;DHT22;1241;50.920;6.936;2022-07-10T16:03:26;20.90;99.90
2459;DHT22;1241;50.920;6.936;2022-07-10T16:05:52;20.90;99.90
2459;DHT22;1241;50.920;6.936;2022-07-10T16:08:18;20.90;99.90
2459;DHT22;1241;50.920;6.936;2022-07-10T16:10:50;20.90;99.90
2459;DHT22;1241;50.920;6.936;2022-07-10T16:13:16;21.00;99.90
2459;DHT22;1241;50.920;6.936;2022-07-10T16:15:41;21.10;99.90
2459;DHT22;1241;50.920;6.936;2022-07-10T16:18:07;21.00;99.90
2459;DHT22;1241;50.920;6.936;2022-07-10T16:20:34;21.00;99.90
2459;DHT22;1241;50.920;6.936;2022-07-10T16:23:02;21.10;99.90
2459;DHT22;1241;50.920;6.936;2022-07-10T16:25:27;21.10;99.90
2459;DHT22;1241;50.920;6.936;2022-07-10T16:28:12;21.00;99.90
2459;DHT22;1241;50.920;6.936;2022-07-10T16:30:38;20.90;99.90
2459;DHT22;1241;50.920;6.936;2022-07-10T16:33:03;20.90;99.90
2459;DHT22;1241;50.920;6.936;2022-07-10T16:35:29;20.90;99.90
2459;DHT22;1241;50.920;6.936;2022-07-10T16:37:55;21.00;99.90
2459;DHT22;1241;50.920;6.936;2022-07-10T16:40:21;21.10;99.90
2459;DHT22;1241;50.920;6.936;2022-07-10T16:42:47;21.10;99.90
2459;DHT22;1241;50.920;6.936;2022-07-10T16:45:13;21.10;99.90
2459;DHT22;1241;50.920;6.936;2022-07-10T16:47:39;21.30;99.90
2459;DHT22;1241;50.920;6.936;2022-07-10T16:50:05;21.50;99.90
2459;DHT22;1241;50.920;6.936;2022-07-10T16:52:31;21.70;99.90
2459;DHT22;1241;50.920;6.936;2022-07-10T16:54:57;21.70;99.90
2459;DHT22;1241;50.920;6.936;2022-07-10T16:57:23;21.70;99.90